createdAt,value
2022-09-27T00:04:20.837Z,8.83
2022-09-27T00:09:43.117Z,8.68
2022-09-27T00:15:07.057Z,8.84
2022-09-27T00:20:29.767Z,8.75
2022-09-27T00:25:57.519Z,8.60
2022-09-27T00:31:32.591Z,8.69
2022-09-27T00:36:56.237Z,8.70
2022-09-27T00:42:18.878Z,8.60
2022-09-27T00:47:54.989Z,8.58
2022-09-27T00:53:32.270Z,8.96
2022-09-27T00:59:30.098Z,9.06
2022-09-27T01:04:56.256Z,8.75
2022-09-27T01:10:19.949Z,8.89
2022-09-27T01:15:55.233Z,8.89
2022-09-27T01:21:47.717Z,9.07
2022-09-27T01:27:24.145Z,8.98
2022-09-27T01:32:50.018Z,9.04
2022-09-27T01:38:31.507Z,8.73
2022-09-27T01:44:11.767Z,9.00
2022-09-27T01:50:01.665Z,9.04
2022-09-27T01:55:31.717Z,8.99
2022-09-27T02:01:22.909Z,8.97
2022-09-27T02:06:49.768Z,8.97
2022-09-27T02:12:22.535Z,8.97
2022-09-27T02:18:02.040Z,9.00
2022-09-27T02:23:32.307Z,8.98
2022-09-27T02:29:12.287Z,8.96
2022-09-27T02:34:42.300Z,8.91
2022-09-27T02:40:05.255Z,8.93
2022-09-27T02:45:37.623Z,8.89
2022-09-27T02:51:08.774Z,8.91
2022-09-27T02:57:06.148Z,8.93
2022-09-27T03:03:11.162Z,8.91
2022-09-27T03:08:42.477Z,8.87
2022-09-27T03:14:11.340Z,8.88
2022-09-27T03:19:41.479Z,8.82
2022-09-27T03:25:28.430Z,8.86
2022-09-27T03:30:50.591Z,8.84
2022-09-27T03:36:33.278Z,8.87
2022-09-27T03:41:56.237Z,8.94
2022-09-27T03:47:18.397Z,8.66
2022-09-27T03:52:43.342Z,8.58
2022-09-27T03:58:05.876Z,8.71
2022-09-27T04:03:29.675Z,8.78
2022-09-27T04:09:10.201Z,8.60
2022-09-27T04:14:52.367Z,9.01
2022-09-27T04:20:39.967Z,8.82
2022-09-27T04:26:08.947Z,8.55
2022-09-27T04:31:49.207Z,8.68
2022-09-27T04:37:25.017Z,9.03
2022-09-27T04:42:51.559Z,8.75
2022-09-27T04:48:13.877Z,8.93
2022-09-27T04:53:35.980Z,9.06
2022-09-27T04:58:59.277Z,9.07
2022-09-27T05:04:22.316Z,9.07
2022-09-27T05:09:46.687Z,9.12
2022-09-27T05:15:09.922Z,9.17
2022-09-27T05:20:50.178Z,9.19
2022-09-27T05:26:16.978Z,9.23
2022-09-27T05:31:39.198Z,9.30
2022-09-27T05:37:01.498Z,9.31
2022-09-27T05:42:27.057Z,9.30
2022-09-27T05:47:59.618Z,9.33
2022-09-27T05:53:22.417Z,9.24
2022-09-27T05:58:47.828Z,9.20
2022-09-27T06:04:12.868Z,9.25
2022-09-27T06:10:01.648Z,9.00
2022-09-27T06:15:26.195Z,9.28
2022-09-27T06:20:48.439Z,9.32
2022-09-27T06:26:14.577Z,9.23
2022-09-27T06:32:03.070Z,9.31
2022-09-27T06:37:51.557Z,9.18
2022-09-27T06:43:16.706Z,9.34
2022-09-27T06:48:57.556Z,9.50
2022-09-27T06:54:21.198Z,9.49
2022-09-27T07:00:01.349Z,9.52
2022-09-27T07:05:45.026Z,9.56
2022-09-27T07:11:26.927Z,9.64
2022-09-27T07:16:49.267Z,9.78
2022-09-27T07:22:13.147Z,9.82
2022-09-27T07:27:38.681Z,9.88
2022-09-27T07:33:05.647Z,10.06
2022-09-27T07:38:27.797Z,10.11
2022-09-27T07:43:51.280Z,10.06
2022-09-27T07:49:15.209Z,9.94
2022-09-27T07:55:06.547Z,9.99
2022-09-27T08:00:44.695Z,10.05
2022-09-27T08:06:10.037Z,9.98
2022-09-27T08:11:32.256Z,10.03
2022-09-27T08:16:56.699Z,10.13
2022-09-27T08:22:25.219Z,10.19
2022-09-27T08:27:58.553Z,10.19
2022-09-27T08:33:41.069Z,10.29
2022-09-27T08:39:05.769Z,10.35
2022-09-27T08:45:04.181Z,10.38
2022-09-27T08:50:40.029Z,10.66
2022-09-27T08:56:09.897Z,10.78
2022-09-27T09:01:38.350Z,10.82
2022-09-27T09:07:51.957Z,10.82
2022-09-27T09:13:46.928Z,10.80
2022-09-27T09:19:47.537Z,10.81
2022-09-27T09:25:43.419Z,10.83
2022-09-27T09:31:28.911Z,10.87
2022-09-27T09:36:57.076Z,10.95
2022-09-27T10:25:29.169Z,11.62
2022-09-27T10:31:27.988Z,11.54
2022-09-27T10:37:26.988Z,11.44
2022-09-27T10:43:03.737Z,12.07
2022-09-27T10:48:45.159Z,11.94
2022-09-27T10:54:24.568Z,11.82
2022-09-27T10:59:56.883Z,11.79
2022-09-27T11:05:27.068Z,11.74
2022-09-27T11:11:14.959Z,11.66
2022-09-27T11:17:02.188Z,11.62
2022-09-27T11:22:45.276Z,11.46
2022-09-27T11:28:20.189Z,11.44
2022-09-27T11:33:46.658Z,11.33
2022-09-27T11:39:24.618Z,11.26
2022-09-27T11:45:40.977Z,11.04
2022-09-27T11:51:11.608Z,11.19
2022-09-27T11:57:26.907Z,10.82
2022-09-27T12:03:10.627Z,11.07
2022-09-27T12:08:59.176Z,10.87
2022-09-27T12:14:44.419Z,11.15
2022-09-27T12:20:34.150Z,10.94
2022-09-27T12:26:04.878Z,10.87
2022-09-27T12:31:38.152Z,10.65
2022-09-27T12:37:09.320Z,10.65
2022-09-27T12:42:45.390Z,10.75
2022-09-27T12:48:29.080Z,10.60
2022-09-27T12:54:13.917Z,10.49
2022-09-27T12:59:52.560Z,10.49
2022-09-27T13:05:52.200Z,10.46
2022-09-27T13:11:42.355Z,10.42
2022-09-27T13:17:04.530Z,10.44
2022-09-27T13:22:40.973Z,10.34
2022-09-27T13:28:36.954Z,10.37
2022-09-27T13:34:41.419Z,10.38
2022-09-27T13:40:33.263Z,10.39
2022-09-27T13:46:24.647Z,10.21
2022-09-27T13:51:58.240Z,10.09
2022-09-27T13:57:38.731Z,10.44
2022-09-27T14:03:17.309Z,10.46
2022-09-27T14:08:57.787Z,9.94
2022-09-27T14:14:47.261Z,9.91
2022-09-27T14:20:46.637Z,9.92
2022-09-27T14:26:31.622Z,9.78
2022-09-27T14:32:28.072Z,9.62
2022-09-27T14:38:20.739Z,9.64
2022-09-27T14:43:51.087Z,9.58
2022-09-27T14:49:24.912Z,9.51
2022-09-27T14:55:16.770Z,9.21
2022-09-27T15:01:37.878Z,9.37
2022-09-27T15:07:30.978Z,8.96
2022-09-27T15:19:35.750Z,9.15
2022-09-27T15:25:08.777Z,9.10
2022-09-27T15:30:52.041Z,8.93
2022-09-27T15:36:20.208Z,8.63
2022-09-27T15:42:18.068Z,9.02
2022-09-27T15:47:42.988Z,8.56
2022-09-27T15:53:07.337Z,8.37
2022-09-27T15:58:30.263Z,8.59
2022-09-27T16:03:52.518Z,8.30
2022-09-27T16:09:18.497Z,8.42
2022-09-27T16:14:40.975Z,8.49
2022-09-27T16:20:03.318Z,8.15
2022-09-27T16:25:27.761Z,8.09
2022-09-27T16:30:49.869Z,7.96
2022-09-27T16:36:16.717Z,8.04
2022-09-27T16:41:41.737Z,8.20
2022-09-27T16:47:05.019Z,8.16
2022-09-27T16:52:26.859Z,8.24
2022-09-27T16:57:50.065Z,8.26
2022-09-27T17:03:11.987Z,8.13
2022-09-27T17:08:33.988Z,8.10
2022-09-27T17:13:56.468Z,8.01
2022-09-27T17:19:19.119Z,7.83
2022-09-27T17:24:41.077Z,7.81
2022-09-27T17:30:03.116Z,7.81
2022-09-27T17:35:25.748Z,7.72
2022-09-27T17:40:48.107Z,7.69
2022-09-27T17:46:13.241Z,7.62
2022-09-27T17:51:37.538Z,7.07
2022-09-27T17:57:00.129Z,6.99
2022-09-27T18:02:22.976Z,7.41
2022-09-27T18:07:45.887Z,7.61
2022-09-27T18:13:08.998Z,7.48
2022-09-27T18:18:34.790Z,7.27
2022-09-27T18:23:59.011Z,7.37
2022-09-27T18:29:24.008Z,7.62
2022-09-27T18:34:49.777Z,7.33
2022-09-27T18:40:12.500Z,7.30
2022-09-27T18:45:44.890Z,7.00
2022-09-27T18:51:33.223Z,7.28
2022-09-27T18:56:59.821Z,7.31
2022-09-27T19:02:31.569Z,6.98
2022-09-27T19:08:02.060Z,6.98
2022-09-27T19:13:28.876Z,7.18
2022-09-27T19:19:26.582Z,7.45
2022-09-27T19:25:22.434Z,7.01
2022-09-27T19:31:06.930Z,7.41
2022-09-27T19:37:00.029Z,7.11
2022-09-27T19:42:34.638Z,7.38
2022-09-27T19:48:21.217Z,7.25
2022-09-27T19:53:46.516Z,6.84
2022-09-27T19:59:28.658Z,7.15
2022-09-27T20:04:53.178Z,7.06
2022-09-27T20:10:23.642Z,7.04
2022-09-27T20:16:02.884Z,6.70
2022-09-27T20:21:29.391Z,6.71
2022-09-27T20:26:51.823Z,6.82
2022-09-27T20:32:27.433Z,6.66
2022-09-27T20:37:52.701Z,7.06
2022-09-27T20:43:16.512Z,6.91
2022-09-27T20:48:47.298Z,7.19
2022-09-27T20:54:12.006Z,6.73
2022-09-27T20:59:37.889Z,6.79
2022-09-27T21:05:10.497Z,6.91
2022-09-27T21:10:36.218Z,7.02
2022-09-27T21:16:06.944Z,7.35
2022-09-27T21:21:31.689Z,7.09
2022-09-27T21:26:54.977Z,7.28
2022-09-27T21:32:19.909Z,7.39
2022-09-27T21:37:43.900Z,7.28
2022-09-27T21:43:06.109Z,7.08
2022-09-27T21:48:27.830Z,7.66
2022-09-27T21:53:54.957Z,7.69
2022-09-27T21:59:18.778Z,7.56
2022-09-27T22:04:40.579Z,7.66
2022-09-27T22:10:02.673Z,7.69
2022-09-27T22:15:24.479Z,7.63
2022-09-27T22:20:46.719Z,7.71
2022-09-27T22:26:14.570Z,7.73
2022-09-27T22:31:37.335Z,7.74
2022-09-27T22:37:01.389Z,7.74
2022-09-27T22:42:23.760Z,7.72
2022-09-27T22:47:45.859Z,7.45
2022-09-27T22:53:08.739Z,7.26
2022-09-27T22:58:31.711Z,7.24
2022-09-27T23:03:54.844Z,7.37
2022-09-27T23:09:18.124Z,7.49
2022-09-27T23:14:42.849Z,7.18
2022-09-27T23:20:05.299Z,7.49
2022-09-27T23:25:27.717Z,7.47
2022-09-27T23:30:49.909Z,7.66
2022-09-27T23:36:18.039Z,7.64
2022-09-27T23:41:40.942Z,7.24
2022-09-27T23:47:04.567Z,7.65
2022-09-27T23:52:27.169Z,7.62
2022-09-27T23:57:49.221Z,7.64
